sensor_id;sensor_type;location;lat;lon;timestamp;temperature;humidity
17252;DHT22;8742;51.716;8.790;2023-04-29T00:02:17;12.90;99.90
17252;DHT22;8742;51.716;8.790;2023-04-29T00:04:52;12.90;99.90
17252;DHT22;8742;51.716;8.790;2023-04-29T00:07:19;12.90;99.90
17252;DHT22;8742;51.716;8.790;2023-04-29T00:09:47;12.80;99.90
17252;DHT22;8742;51.716;8.790;2023-04-29T00:12:15;12.80;99.90
17252;DHT22;8742;51.716;8.790;2023-04-29T00:14:42;12.80;99.90
17252;DHT22;8742;51.716;8.790;2023-04-29T00:17:09;12.80;99.90
17252;DHT22;8742;51.716;8.790;2023-04-29T00:19:36;12.80;99.90
17252;DHT22;8742;51.716;8.790;2023-04-29T00:22:04;12.80;99.90
17252;DHT22;8742;51.716;8.790;2023-04-29T00:24:31;12.80;99.90
17252;DHT22;8742;51.716;8.790;2023-04-29T00:26:58;12.70;99.90
17252;DHT22;8742;51.716;8.790;2023-04-29T00:29:26;12.80;99.90
17252;DHT22;8742;51.716;8.790;2023-04-29T00:31:54;12.70;99.90
17252;DHT22;8742;51.716;8.790;2023-04-29T00:34:21;12.70;99.90
17252;DHT22;8742;51.716;8.790;2023-04-29T00:36:49;12.70;99.90
17252;DHT22;8742;51.716;8.790;2023-04-29T00:39:17;12.70;99.90
17252;DHT22;8742;51.716;8.790;2023-04-29T00:41:47;12.70;99.90
17252;DHT22;8742;51.716;8.790;2023-04-29T00:44:15;12.70;99.90
17252;DHT22;8742;51.716;8.790;2023-04-29T00:46:48;12.60;99.90
17252;DHT22;8742;51.716;8.790;2023-04-29T00:49:14;12.60;99.90
17252;DHT22;8742;51.716;8.790;2023-04-29T00:51:42;12.60;99.90
17252;DHT22;8742;51.716;8.790;2023-04-29T00:54:10;12.60;99.90
17252;DHT22;8742;51.716;8.790;2023-04-29T00:56:39;12.60;99.90
17252;DHT22;8742;51.716;8.790;2023-04-29T00:59:08;12.50;99.90
17252;DHT22;8742;51.716;8.790;2023-04-29T01:01:37;12.50;99.90
17252;DHT22;8742;51.716;8.790;2023-04-29T01:04:05;12.50;99.90
17252;DHT22;8742;51.716;8.790;2023-04-29T01:06:40;12.50;99.90
17252;DHT22;8742;51.716;8.790;2023-04-29T01:09:33;12.40;99.90
17252;DHT22;8742;51.716;8.790;2023-04-29T01:12:08;12.40;99.90
17252;DHT22;8742;51.716;8.790;2023-04-29T01:14:45;12.40;99.90
17252;DHT22;8742;51.716;8.790;2023-04-29T01:17:17;12.40;99.90
17252;DHT22;8742;51.716;8.790;2023-04-29T01:19:47;12.40;99.90
17252;DHT22;8742;51.716;8.790;2023-04-29T01:22:15;12.40;99.90
17252;DHT22;8742;51.716;8.790;2023-04-29T01:24:44;12.40;99.90
17252;DHT22;8742;51.716;8.790;2023-04-29T01:27:27;12.30;99.90
17252;DHT22;8742;51.716;8.790;2023-04-29T01:30:11;12.30;99.90
17252;DHT22;8742;51.716;8.790;2023-04-29T01:32:50;12.30;99.90
17252;DHT22;8742;51.716;8.790;2023-04-29T01:35:35;12.30;99.90
17252;DHT22;8742;51.716;8.790;2023-04-29T01:38:22;12.30;99.90
17252;DHT22;8742;51.716;8.790;2023-04-29T01:40:58;12.20;99.90
17252;DHT22;8742;51.716;8.790;2023-04-29T01:43:30;12.20;99.90
17252;DHT22;8742;51.716;8.790;2023-04-29T01:45:58;12.20;99.90
17252;DHT22;8742;51.716;8.790;2023-04-29T01:48:25;12.10;99.90
17252;DHT22;8742;51.716;8.790;2023-04-29T01:50:53;12.10;99.90
17252;DHT22;8742;51.716;8.790;2023-04-29T01:53:19;12.00;99.90
17252;DHT22;8742;51.716;8.790;2023-04-29T01:55:46;12.00;99.90
17252;DHT22;8742;51.716;8.790;2023-04-29T01:58:14;11.90;99.90
17252;DHT22;8742;51.716;8.790;2023-04-29T02:00:42;11.90;99.90
17252;DHT22;8742;51.716;8.790;2023-04-29T02:03:09;11.80;99.90
17252;DHT22;8742;51.716;8.790;2023-04-29T02:05:36;11.80;99.90
17252;DHT22;8742;51.716;8.790;2023-04-29T02:08:04;11.80;99.90
17252;DHT22;8742;51.716;8.790;2023-04-29T02:10:39;11.70;99.90
17252;DHT22;8742;51.716;8.790;2023-04-29T02:13:06;11.70;99.90
17252;DHT22;8742;51.716;8.790;2023-04-29T02:15:34;11.60;99.90
17252;DHT22;8742;51.716;8.790;2023-04-29T02:18:01;11.60;99.90
17252;DHT22;8742;51.716;8.790;2023-04-29T02:20:28;11.60;99.90
17252;DHT22;8742;51.716;8.790;2023-04-29T02:22:55;11.60;99.90
17252;DHT22;8742;51.716;8.790;2023-04-29T02:25:22;11.60;99.90
17252;DHT22;8742;51.716;8.790;2023-04-29T02:27:49;11.50;99.90
17252;DHT22;8742;51.716;8.790;2023-04-29T02:30:18;11.50;99.90
17252;DHT22;8742;51.716;8.790;2023-04-29T02:32:49;11.50;99.90
17252;DHT22;8742;51.716;8.790;2023-04-29T02:35:17;11.50;99.90
17252;DHT22;8742;51.716;8.790;2023-04-29T02:37:44;11.40;99.90
17252;DHT22;8742;51.716;8.790;2023-04-29T02:40:11;11.40;99.90
17252;DHT22;8742;51.716;8.790;2023-04-29T02:42:38;11.30;99.90
17252;DHT22;8742;51.716;8.790;2023-04-29T02:45:06;11.30;99.90
17252;DHT22;8742;51.716;8.790;2023-04-29T02:47:33;11.30;99.90
17252;DHT22;8742;51.716;8.790;2023-04-29T02:50:04;11.20;99.90
17252;DHT22;8742;51.716;8.790;2023-04-29T02:52:34;11.20;99.90
17252;DHT22;8742;51.716;8.790;2023-04-29T02:55:01;11.20;99.90
17252;DHT22;8742;51.716;8.790;2023-04-29T02:57:28;11.20;99.90
17252;DHT22;8742;51.716;8.790;2023-04-29T02:59:56;11.20;99.90
17252;DHT22;8742;51.716;8.790;2023-04-29T03:02:23;11.10;99.90
17252;DHT22;8742;51.716;8.790;2023-04-29T03:04:50;11.10;99.90
17252;DHT22;8742;51.716;8.790;2023-04-29T03:07:19;11.10;99.90
17252;DHT22;8742;51.716;8.790;2023-04-29T03:09:46;11.00;99.90
17252;DHT22;8742;51.716;8.790;2023-04-29T03:12:12;11.00;99.90
17252;DHT22;8742;51.716;8.790;2023-04-29T03:14:41;11.00;99.90
17252;DHT22;8742;51.716;8.790;2023-04-29T03:17:08;11.00;99.90
17252;DHT22;8742;51.716;8.790;2023-04-29T03:19:36;11.00;99.90
17252;DHT22;8742;51.716;8.790;2023-04-29T03:22:03;10.90;99.90
17252;DHT22;8742;51.716;8.790;2023-04-29T03:24:32;10.90;99.90
17252;DHT22;8742;51.716;8.790;2023-04-29T03:26:59;11.00;99.90
17252;DHT22;8742;51.716;8.790;2023-04-29T03:29:26;11.00;99.90
17252;DHT22;8742;51.716;8.790;2023-04-29T03:32:09;10.90;99.90
17252;DHT22;8742;51.716;8.790;2023-04-29T03:34:36;10.90;99.90
17252;DHT22;8742;51.716;8.790;2023-04-29T03:37:03;10.90;99.90
17252;DHT22;8742;51.716;8.790;2023-04-29T03:39:32;10.90;99.90
17252;DHT22;8742;51.716;8.790;2023-04-29T03:41:59;10.90;99.90
17252;DHT22;8742;51.716;8.790;2023-04-29T03:44:27;10.90;99.90
17252;DHT22;8742;51.716;8.790;2023-04-29T03:46:54;10.90;99.90
17252;DHT22;8742;51.716;8.790;2023-04-29T03:49:21;10.80;99.90
17252;DHT22;8742;51.716;8.790;2023-04-29T03:51:48;10.80;99.90
17252;DHT22;8742;51.716;8.790;2023-04-29T03:54:15;10.80;99.90
17252;DHT22;8742;51.716;8.790;2023-04-29T03:56:43;10.80;99.90
17252;DHT22;8742;51.716;8.790;2023-04-29T03:59:10;10.70;99.90
17252;DHT22;8742;51.716;8.790;2023-04-29T04:01:37;10.70;99.90
17252;DHT22;8742;51.716;8.790;2023-04-29T04:04:04;10.70;99.90
17252;DHT22;8742;51.716;8.790;2023-04-29T04:06:31;10.60;99.90
17252;DHT22;8742;51.716;8.790;2023-04-29T04:08:58;10.60;99.90
17252;DHT22;8742;51.716;8.790;2023-04-29T04:11:31;10.60;99.90
17252;DHT22;8742;51.716;8.790;2023-04-29T04:13:59;10.60;99.90
17252;DHT22;8742;51.716;8.790;2023-04-29T04:16:26;10.50;99.90
17252;DHT22;8742;51.716;8.790;2023-04-29T04:18:53;10.50;99.90
17252;DHT22;8742;51.716;8.790;2023-04-29T04:21:19;10.50;99.90
17252;DHT22;8742;51.716;8.790;2023-04-29T04:23:46;10.50;99.90
17252;DHT22;8742;51.716;8.790;2023-04-29T04:26:13;10.40;99.90
17252;DHT22;8742;51.716;8.790;2023-04-29T04:28:41;10.40;99.90
17252;DHT22;8742;51.716;8.790;2023-04-29T04:31:11;10.50;99.90
17252;DHT22;8742;51.716;8.790;2023-04-29T04:33:39;10.40;99.90
17252;DHT22;8742;51.716;8.790;2023-04-29T04:36:06;10.40;99.90
17252;DHT22;8742;51.716;8.790;2023-04-29T04:41:05;10.40;99.90
17252;DHT22;8742;51.716;8.790;2023-04-29T04:43:33;10.40;99.90
17252;DHT22;8742;51.716;8.790;2023-04-29T04:45:59;10.40;99.90
17252;DHT22;8742;51.716;8.790;2023-04-29T04:48:28;10.40;99.90
17252;DHT22;8742;51.716;8.790;2023-04-29T04:50:55;10.40;99.90
17252;DHT22;8742;51.716;8.790;2023-04-29T04:53:22;10.40;99.90
17252;DHT22;8742;51.716;8.790;2023-04-29T04:55:48;10.40;99.90
17252;DHT22;8742;51.716;8.790;2023-04-29T04:58:15;10.40;99.90
17252;DHT22;8742;51.716;8.790;2023-04-29T05:00:43;10.40;99.90
17252;DHT22;8742;51.716;8.790;2023-04-29T05:03:10;10.40;99.90
17252;DHT22;8742;51.716;8.790;2023-04-29T05:05:39;10.40;99.90
17252;DHT22;8742;51.716;8.790;2023-04-29T05:08:05;10.40;99.90
17252;DHT22;8742;51.716;8.790;2023-04-29T05:10:35;10.40;99.90
17252;DHT22;8742;51.716;8.790;2023-04-29T05:13:01;10.40;99.90
17252;DHT22;8742;51.716;8.790;2023-04-29T05:15:28;10.40;99.90
17252;DHT22;8742;51.716;8.790;2023-04-29T05:17:55;10.40;99.90
17252;DHT22;8742;51.716;8.790;2023-04-29T05:20:22;10.40;99.90
17252;DHT22;8742;51.716;8.790;2023-04-29T05:22:50;10.40;99.90
17252;DHT22;8742;51.716;8.790;2023-04-29T05:25:17;10.40;99.90
17252;DHT22;8742;51.716;8.790;2023-04-29T05:27:44;10.40;99.90
17252;DHT22;8742;51.716;8.790;2023-04-29T05:30:11;10.40;99.90
17252;DHT22;8742;51.716;8.790;2023-04-29T05:32:38;10.40;99.90
17252;DHT22;8742;51.716;8.790;2023-04-29T05:35:05;10.40;99.90
17252;DHT22;8742;51.716;8.790;2023-04-29T05:37:35;10.40;99.90
17252;DHT22;8742;51.716;8.790;2023-04-29T05:40:08;10.40;99.90
17252;DHT22;8742;51.716;8.790;2023-04-29T05:42:35;10.40;99.90
17252;DHT22;8742;51.716;8.790;2023-04-29T05:45:02;10.40;99.90
17252;DHT22;8742;51.716;8.790;2023-04-29T05:47:29;10.40;99.90
17252;DHT22;8742;51.716;8.790;2023-04-29T05:49:56;10.40;99.90
17252;DHT22;8742;51.716;8.790;2023-04-29T05:52:23;10.40;99.90
17252;DHT22;8742;51.716;8.790;2023-04-29T05:54:50;10.40;99.90
17252;DHT22;8742;51.716;8.790;2023-04-29T05:57:18;10.40;99.90
17252;DHT22;8742;51.716;8.790;2023-04-29T05:59:45;10.40;99.90
17252;DHT22;8742;51.716;8.790;2023-04-29T06:02:12;10.40;99.90
17252;DHT22;8742;51.716;8.790;2023-04-29T06:04:39;10.40;99.90
17252;DHT22;8742;51.716;8.790;2023-04-29T06:07:07;10.40;99.90
17252;DHT22;8742;51.716;8.790;2023-04-29T06:09:34;10.40;99.90
17252;DHT22;8742;51.716;8.790;2023-04-29T06:12:01;10.50;99.90
17252;DHT22;8742;51.716;8.790;2023-04-29T06:14:29;10.50;99.90
17252;DHT22;8742;51.716;8.790;2023-04-29T06:16:56;10.50;99.90
17252;DHT22;8742;51.716;8.790;2023-04-29T06:19:23;10.50;99.90
17252;DHT22;8742;51.716;8.790;2023-04-29T06:21:50;10.50;99.90
17252;DHT22;8742;51.716;8.790;2023-04-29T06:24:17;10.60;99.90
17252;DHT22;8742;51.716;8.790;2023-04-29T06:26:44;10.60;99.90
17252;DHT22;8742;51.716;8.790;2023-04-29T06:29:11;10.60;99.90
17252;DHT22;8742;51.716;8.790;2023-04-29T06:31:39;10.60;99.90
17252;DHT22;8742;51.716;8.790;2023-04-29T06:34:06;10.70;99.90
17252;DHT22;8742;51.716;8.790;2023-04-29T06:36:32;10.70;99.90
17252;DHT22;8742;51.716;8.790;2023-04-29T06:38:59;10.70;99.90
17252;DHT22;8742;51.716;8.790;2023-04-29T06:41:26;10.70;99.90
17252;DHT22;8742;51.716;8.790;2023-04-29T06:43:53;10.80;99.90
17252;DHT22;8742;51.716;8.790;2023-04-29T06:46:20;10.70;99.90
17252;DHT22;8742;51.716;8.790;2023-04-29T06:48:48;10.80;99.90
17252;DHT22;8742;51.716;8.790;2023-04-29T06:51:15;10.80;99.90
17252;DHT22;8742;51.716;8.790;2023-04-29T06:53:41;10.80;99.90
17252;DHT22;8742;51.716;8.790;2023-04-29T06:56:08;10.80;99.90
17252;DHT22;8742;51.716;8.790;2023-04-29T06:58:35;10.80;99.90
17252;DHT22;8742;51.716;8.790;2023-04-29T07:01:02;10.80;99.90
17252;DHT22;8742;51.716;8.790;2023-04-29T07:03:31;10.80;99.90
17252;DHT22;8742;51.716;8.790;2023-04-29T07:05:59;10.90;99.90
17252;DHT22;8742;51.716;8.790;2023-04-29T07:08:26;11.00;99.90
17252;DHT22;8742;51.716;8.790;2023-04-29T07:10:53;11.00;99.90
17252;DHT22;8742;51.716;8.790;2023-04-29T07:13:21;11.10;99.90
17252;DHT22;8742;51.716;8.790;2023-04-29T07:15:48;11.20;99.90
17252;DHT22;8742;51.716;8.790;2023-04-29T07:18:14;11.20;99.90
17252;DHT22;8742;51.716;8.790;2023-04-29T07:20:41;11.30;99.90
17252;DHT22;8742;51.716;8.790;2023-04-29T07:23:10;11.30;99.90
17252;DHT22;8742;51.716;8.790;2023-04-29T07:25:37;11.40;99.90
17252;DHT22;8742;51.716;8.790;2023-04-29T07:28:04;11.40;99.90
17252;DHT22;8742;51.716;8.790;2023-04-29T07:30:31;11.50;99.90
17252;DHT22;8742;51.716;8.790;2023-04-29T07:32:57;11.50;99.90
17252;DHT22;8742;51.716;8.790;2023-04-29T07:35:24;11.60;99.90
17252;DHT22;8742;51.716;8.790;2023-04-29T07:37:52;11.70;99.90
17252;DHT22;8742;51.716;8.790;2023-04-29T07:40:20;11.70;99.90
17252;DHT22;8742;51.716;8.790;2023-04-29T07:42:47;11.70;99.90
17252;DHT22;8742;51.716;8.790;2023-04-29T07:45:14;11.80;99.90
17252;DHT22;8742;51.716;8.790;2023-04-29T07:47:40;11.80;99.90
17252;DHT22;8742;51.716;8.790;2023-04-29T07:50:08;11.70;99.90
17252;DHT22;8742;51.716;8.790;2023-04-29T07:52:34;11.70;99.90
17252;DHT22;8742;51.716;8.790;2023-04-29T07:55:02;11.80;99.90
17252;DHT22;8742;51.716;8.790;2023-04-29T07:57:30;11.80;99.90
17252;DHT22;8742;51.716;8.790;2023-04-29T07:59:56;11.80;99.90
17252;DHT22;8742;51.716;8.790;2023-04-29T08:02:23;11.80;99.90
17252;DHT22;8742;51.716;8.790;2023-04-29T08:04:50;11.80;99.90
17252;DHT22;8742;51.716;8.790;2023-04-29T08:07:18;11.90;99.90
17252;DHT22;8742;51.716;8.790;2023-04-29T08:09:45;11.90;99.90
17252;DHT22;8742;51.716;8.790;2023-04-29T08:12:12;12.00;99.90
17252;DHT22;8742;51.716;8.790;2023-04-29T08:14:40;12.20;99.90
17252;DHT22;8742;51.716;8.790;2023-04-29T08:17:07;12.50;99.90
17252;DHT22;8742;51.716;8.790;2023-04-29T08:19:33;12.70;99.90
17252;DHT22;8742;51.716;8.790;2023-04-29T08:22:00;12.70;99.90
17252;DHT22;8742;51.716;8.790;2023-04-29T08:24:28;12.80;99.90
17252;DHT22;8742;51.716;8.790;2023-04-29T08:26:55;12.80;99.90
17252;DHT22;8742;51.716;8.790;2023-04-29T08:29:23;12.80;99.90
17252;DHT22;8742;51.716;8.790;2023-04-29T08:31:51;12.70;99.90
17252;DHT22;8742;51.716;8.790;2023-04-29T08:34:18;12.60;99.90
17252;DHT22;8742;51.716;8.790;2023-04-29T08:36:45;12.60;99.90
17252;DHT22;8742;51.716;8.790;2023-04-29T08:39:12;12.70;99.90
17252;DHT22;8742;51.716;8.790;2023-04-29T08:41:38;12.90;99.90
17252;DHT22;8742;51.716;8.790;2023-04-29T08:44:07;13.10;99.90
17252;DHT22;8742;51.716;8.790;2023-04-29T08:46:33;13.40;99.90
17252;DHT22;8742;51.716;8.790;2023-04-29T08:49:03;13.70;99.90
17252;DHT22;8742;51.716;8.790;2023-04-29T08:51:29;13.80;99.90
17252;DHT22;8742;51.716;8.790;2023-04-29T08:53:59;13.70;99.90
17252;DHT22;8742;51.716;8.790;2023-04-29T08:56:25;13.60;99.90
17252;DHT22;8742;51.716;8.790;2023-04-29T08:58:54;13.40;99.90
17252;DHT22;8742;51.716;8.790;2023-04-29T09:01:25;13.30;99.90
17252;DHT22;8742;51.716;8.790;2023-04-29T09:03:59;13.30;99.90
17252;DHT22;8742;51.716;8.790;2023-04-29T09:06:29;13.30;99.90
17252;DHT22;8742;51.716;8.790;2023-04-29T09:08:58;13.40;99.90
17252;DHT22;8742;51.716;8.790;2023-04-29T09:11:26;13.50;99.90
17252;DHT22;8742;51.716;8.790;2023-04-29T09:13:58;13.60;99.90
17252;DHT22;8742;51.716;8.790;2023-04-29T09:16:25;13.70;99.90
17252;DHT22;8742;51.716;8.790;2023-04-29T09:18:52;13.80;99.90
17252;DHT22;8742;51.716;8.790;2023-04-29T09:21:21;13.80;99.90
17252;DHT22;8742;51.716;8.790;2023-04-29T09:23:50;13.80;99.90
17252;DHT22;8742;51.716;8.790;2023-04-29T09:26:17;13.90;99.90
17252;DHT22;8742;51.716;8.790;2023-04-29T09:28:44;14.00;99.90
17252;DHT22;8742;51.716;8.790;2023-04-29T09:31:12;14.20;99.90
17252;DHT22;8742;51.716;8.790;2023-04-29T09:33:50;14.30;99.90
17252;DHT22;8742;51.716;8.790;2023-04-29T09:36:37;14.40;99.90
17252;DHT22;8742;51.716;8.790;2023-04-29T09:39:06;14.40;99.90
17252;DHT22;8742;51.716;8.790;2023-04-29T09:41:38;14.40;99.90
17252;DHT22;8742;51.716;8.790;2023-04-29T09:44:05;14.50;99.90
17252;DHT22;8742;51.716;8.790;2023-04-29T09:46:33;14.60;99.90
17252;DHT22;8742;51.716;8.790;2023-04-29T09:49:01;14.70;99.90
17252;DHT22;8742;51.716;8.790;2023-04-29T09:51:29;14.80;99.90
17252;DHT22;8742;51.716;8.790;2023-04-29T09:53:58;14.90;99.90
17252;DHT22;8742;51.716;8.790;2023-04-29T09:56:27;14.90;99.90
17252;DHT22;8742;51.716;8.790;2023-04-29T09:58:55;14.90;99.90
17252;DHT22;8742;51.716;8.790;2023-04-29T10:01:24;15.00;99.90
17252;DHT22;8742;51.716;8.790;2023-04-29T10:03:54;15.30;99.90
17252;DHT22;8742;51.716;8.790;2023-04-29T10:06:22;15.40;99.90
17252;DHT22;8742;51.716;8.790;2023-04-29T10:08:50;15.50;99.90
17252;DHT22;8742;51.716;8.790;2023-04-29T10:11:17;15.50;99.90
17252;DHT22;8742;51.716;8.790;2023-04-29T10:13:47;15.50;99.90
17252;DHT22;8742;51.716;8.790;2023-04-29T10:16:24;15.40;99.90
17252;DHT22;8742;51.716;8.790;2023-04-29T10:18:55;15.40;99.90
17252;DHT22;8742;51.716;8.790;2023-04-29T10:21:26;15.40;99.90
17252;DHT22;8742;51.716;8.790;2023-04-29T10:23:56;15.40;99.90
17252;DHT22;8742;51.716;8.790;2023-04-29T10:26:26;15.40;99.90
17252;DHT22;8742;51.716;8.790;2023-04-29T10:28:59;15.30;99.90
17252;DHT22;8742;51.716;8.790;2023-04-29T10:31:26;15.20;99.90
17252;DHT22;8742;51.716;8.790;2023-04-29T10:33:55;15.20;99.90
17252;DHT22;8742;51.716;8.790;2023-04-29T10:36:24;15.20;99.90
17252;DHT22;8742;51.716;8.790;2023-04-29T10:38:54;15.30;99.90
17252;DHT22;8742;51.716;8.790;2023-04-29T10:41:25;15.50;99.90
17252;DHT22;8742;51.716;8.790;2023-04-29T10:43:53;15.70;99.90
17252;DHT22;8742;51.716;8.790;2023-04-29T10:46:22;15.80;99.90
17252;DHT22;8742;51.716;8.790;2023-04-29T10:48:55;16.00;99.90
17252;DHT22;8742;51.716;8.790;2023-04-29T10:51:31;16.10;99.90
17252;DHT22;8742;51.716;8.790;2023-04-29T10:54:03;16.10;99.90
17252;DHT22;8742;51.716;8.790;2023-04-29T10:56:42;16.10;99.90
17252;DHT22;8742;51.716;8.790;2023-04-29T10:59:13;16.10;99.90
17252;DHT22;8742;51.716;8.790;2023-04-29T11:01:46;16.10;99.90
17252;DHT22;8742;51.716;8.790;2023-04-29T11:04:14;16.10;99.90
17252;DHT22;8742;51.716;8.790;2023-04-29T11:06:44;16.00;99.90
17252;DHT22;8742;51.716;8.790;2023-04-29T11:09:14;15.90;99.90
17252;DHT22;8742;51.716;8.790;2023-04-29T11:11:56;15.60;99.90
17252;DHT22;8742;51.716;8.790;2023-04-29T11:14:24;15.40;99.90
17252;DHT22;8742;51.716;8.790;2023-04-29T11:16:56;15.30;99.90
17252;DHT22;8742;51.716;8.790;2023-04-29T11:19:25;15.20;99.90
17252;DHT22;8742;51.716;8.790;2023-04-29T11:22:11;15.20;99.90
17252;DHT22;8742;51.716;8.790;2023-04-29T11:24:52;15.30;99.90
17252;DHT22;8742;51.716;8.790;2023-04-29T11:27:20;15.40;99.90
17252;DHT22;8742;51.716;8.790;2023-04-29T11:29:50;15.50;99.90
17252;DHT22;8742;51.716;8.790;2023-04-29T11:32:21;15.70;99.90
17252;DHT22;8742;51.716;8.790;2023-04-29T11:34:50;15.80;99.90
17252;DHT22;8742;51.716;8.790;2023-04-29T11:37:21;15.90;99.90
17252;DHT22;8742;51.716;8.790;2023-04-29T11:39:49;16.00;99.90
17252;DHT22;8742;51.716;8.790;2023-04-29T11:42:20;16.00;99.90
17252;DHT22;8742;51.716;8.790;2023-04-29T11:44:50;15.90;99.90
17252;DHT22;8742;51.716;8.790;2023-04-29T11:47:17;15.80;99.90
17252;DHT22;8742;51.716;8.790;2023-04-29T11:49:47;15.70;99.90
17252;DHT22;8742;51.716;8.790;2023-04-29T11:52:14;15.50;99.90
17252;DHT22;8742;51.716;8.790;2023-04-29T11:54:41;15.20;99.90
17252;DHT22;8742;51.716;8.790;2023-04-29T11:57:09;15.00;99.90
17252;DHT22;8742;51.716;8.790;2023-04-29T11:59:36;14.80;99.90
17252;DHT22;8742;51.716;8.790;2023-04-29T12:02:03;14.70;99.90
17252;DHT22;8742;51.716;8.790;2023-04-29T12:04:30;14.70;99.90
17252;DHT22;8742;51.716;8.790;2023-04-29T12:06:58;14.70;99.90
17252;DHT22;8742;51.716;8.790;2023-04-29T12:09:25;14.80;99.90
17252;DHT22;8742;51.716;8.790;2023-04-29T12:11:52;15.00;99.90
17252;DHT22;8742;51.716;8.790;2023-04-29T12:14:19;15.10;99.90
17252;DHT22;8742;51.716;8.790;2023-04-29T12:16:46;15.30;99.90
17252;DHT22;8742;51.716;8.790;2023-04-29T12:19:14;15.40;99.90
17252;DHT22;8742;51.716;8.790;2023-04-29T12:21:48;15.40;99.90
17252;DHT22;8742;51.716;8.790;2023-04-29T12:24:19;15.40;99.90
17252;DHT22;8742;51.716;8.790;2023-04-29T12:26:48;15.30;99.90
17252;DHT22;8742;51.716;8.790;2023-04-29T12:29:15;15.30;99.90
17252;DHT22;8742;51.716;8.790;2023-04-29T12:31:42;15.20;99.90
17252;DHT22;8742;51.716;8.790;2023-04-29T12:34:13;15.20;99.90
17252;DHT22;8742;51.716;8.790;2023-04-29T12:36:41;15.30;99.90
17252;DHT22;8742;51.716;8.790;2023-04-29T12:39:09;15.30;99.90
17252;DHT22;8742;51.716;8.790;2023-04-29T12:41:39;15.40;99.90
17252;DHT22;8742;51.716;8.790;2023-04-29T12:44:06;15.60;99.90
17252;DHT22;8742;51.716;8.790;2023-04-29T12:46:35;15.80;99.90
17252;DHT22;8742;51.716;8.790;2023-04-29T12:49:03;16.00;99.90
17252;DHT22;8742;51.716;8.790;2023-04-29T12:51:30;16.20;99.90
17252;DHT22;8742;51.716;8.790;2023-04-29T12:53:58;16.30;99.90
17252;DHT22;8742;51.716;8.790;2023-04-29T12:56:25;16.30;99.90
17252;DHT22;8742;51.716;8.790;2023-04-29T12:58:53;16.20;99.90
17252;DHT22;8742;51.716;8.790;2023-04-29T13:01:20;16.20;99.90
17252;DHT22;8742;51.716;8.790;2023-04-29T13:03:46;16.10;99.90
17252;DHT22;8742;51.716;8.790;2023-04-29T13:06:15;16.00;99.90
17252;DHT22;8742;51.716;8.790;2023-04-29T13:08:42;15.90;99.90
17252;DHT22;8742;51.716;8.790;2023-04-29T13:11:09;15.80;99.90
17252;DHT22;8742;51.716;8.790;2023-04-29T13:13:38;15.60;99.90
17252;DHT22;8742;51.716;8.790;2023-04-29T13:16:07;15.50;99.90
17252;DHT22;8742;51.716;8.790;2023-04-29T13:18:34;15.40;99.90
17252;DHT22;8742;51.716;8.790;2023-04-29T13:21:02;15.30;99.90
17252;DHT22;8742;51.716;8.790;2023-04-29T13:23:29;15.20;99.90
17252;DHT22;8742;51.716;8.790;2023-04-29T13:25:56;15.10;99.90
17252;DHT22;8742;51.716;8.790;2023-04-29T13:28:23;15.10;99.90
17252;DHT22;8742;51.716;8.790;2023-04-29T13:30:50;15.20;99.90
17252;DHT22;8742;51.716;8.790;2023-04-29T13:33:18;15.30;99.90
17252;DHT22;8742;51.716;8.790;2023-04-29T13:35:46;15.40;99.90
17252;DHT22;8742;51.716;8.790;2023-04-29T13:38:13;15.60;99.90
17252;DHT22;8742;51.716;8.790;2023-04-29T13:40:42;15.80;99.90
17252;DHT22;8742;51.716;8.790;2023-04-29T13:43:08;16.10;99.90
17252;DHT22;8742;51.716;8.790;2023-04-29T13:45:35;16.40;99.90
17252;DHT22;8742;51.716;8.790;2023-04-29T13:48:02;16.60;99.90
17252;DHT22;8742;51.716;8.790;2023-04-29T13:50:31;16.70;99.90
17252;DHT22;8742;51.716;8.790;2023-04-29T13:52:58;16.80;99.90
17252;DHT22;8742;51.716;8.790;2023-04-29T13:55:25;16.70;99.90
17252;DHT22;8742;51.716;8.790;2023-04-29T13:57:51;16.60;99.90
17252;DHT22;8742;51.716;8.790;2023-04-29T14:00:18;16.40;99.90
17252;DHT22;8742;51.716;8.790;2023-04-29T14:02:45;16.10;99.90
17252;DHT22;8742;51.716;8.790;2023-04-29T14:05:12;15.90;99.90
17252;DHT22;8742;51.716;8.790;2023-04-29T14:07:41;15.70;99.90
17252;DHT22;8742;51.716;8.790;2023-04-29T14:10:08;15.50;99.90
17252;DHT22;8742;51.716;8.790;2023-04-29T14:12:35;15.40;99.90
17252;DHT22;8742;51.716;8.790;2023-04-29T14:15:02;15.30;99.90
17252;DHT22;8742;51.716;8.790;2023-04-29T14:17:28;15.20;99.90
17252;DHT22;8742;51.716;8.790;2023-04-29T14:19:55;15.10;99.90
17252;DHT22;8742;51.716;8.790;2023-04-29T14:22:22;15.20;99.90
17252;DHT22;8742;51.716;8.790;2023-04-29T14:24:51;15.20;99.90
17252;DHT22;8742;51.716;8.790;2023-04-29T14:27:19;15.30;99.90
17252;DHT22;8742;51.716;8.790;2023-04-29T14:29:47;15.30;99.90
17252;DHT22;8742;51.716;8.790;2023-04-29T14:32:13;15.30;99.90
17252;DHT22;8742;51.716;8.790;2023-04-29T14:34:40;15.30;99.90
17252;DHT22;8742;51.716;8.790;2023-04-29T14:37:07;15.40;99.90
17252;DHT22;8742;51.716;8.790;2023-04-29T14:39:34;15.40;99.90
17252;DHT22;8742;51.716;8.790;2023-04-29T14:42:02;15.40;99.90
17252;DHT22;8742;51.716;8.790;2023-04-29T14:44:29;15.30;99.90
17252;DHT22;8742;51.716;8.790;2023-04-29T14:46:56;15.30;99.90
17252;DHT22;8742;51.716;8.790;2023-04-29T14:49:23;15.30;99.90
17252;DHT22;8742;51.716;8.790;2023-04-29T14:51:50;15.30;99.90
17252;DHT22;8742;51.716;8.790;2023-04-29T14:54:17;15.30;99.90
17252;DHT22;8742;51.716;8.790;2023-04-29T14:56:44;15.30;99.90
17252;DHT22;8742;51.716;8.790;2023-04-29T14:59:12;15.30;99.90
17252;DHT22;8742;51.716;8.790;2023-04-29T15:01:39;15.30;99.90
17252;DHT22;8742;51.716;8.790;2023-04-29T15:04:05;15.40;99.90
17252;DHT22;8742;51.716;8.790;2023-04-29T15:06:32;15.50;99.90
17252;DHT22;8742;51.716;8.790;2023-04-29T15:08:59;15.50;99.90
17252;DHT22;8742;51.716;8.790;2023-04-29T15:11:26;15.50;99.90
17252;DHT22;8742;51.716;8.790;2023-04-29T15:13:53;15.40;99.90
17252;DHT22;8742;51.716;8.790;2023-04-29T15:16:22;15.40;99.90
17252;DHT22;8742;51.716;8.790;2023-04-29T15:18:49;15.30;99.90
17252;DHT22;8742;51.716;8.790;2023-04-29T15:21:16;15.20;99.90
17252;DHT22;8742;51.716;8.790;2023-04-29T15:23:43;15.10;99.90
17252;DHT22;8742;51.716;8.790;2023-04-29T15:26:10;15.10;99.90
17252;DHT22;8742;51.716;8.790;2023-04-29T15:28:37;15.00;99.90
17252;DHT22;8742;51.716;8.790;2023-04-29T15:31:04;15.00;99.90
17252;DHT22;8742;51.716;8.790;2023-04-29T15:33:32;15.10;99.90
17252;DHT22;8742;51.716;8.790;2023-04-29T15:35:59;15.10;99.90
17252;DHT22;8742;51.716;8.790;2023-04-29T15:38:27;15.20;99.90
17252;DHT22;8742;51.716;8.790;2023-04-29T15:40:54;15.30;99.90
17252;DHT22;8742;51.716;8.790;2023-04-29T15:43:25;15.30;99.90
17252;DHT22;8742;51.716;8.790;2023-04-29T15:45:52;15.30;99.90
17252;DHT22;8742;51.716;8.790;2023-04-29T15:48:19;15.30;99.90
17252;DHT22;8742;51.716;8.790;2023-04-29T15:50:47;15.30;99.90
17252;DHT22;8742;51.716;8.790;2023-04-29T15:53:14;15.30;99.90
17252;DHT22;8742;51.716;8.790;2023-04-29T15:55:41;15.30;99.90